createdAt,value
2019-06-02T00:00:58.577Z,933.07
2019-06-02T00:01:58.576Z,933.12
2019-06-02T00:02:58.580Z,933.16
2019-06-02T00:03:58.545Z,933.21
2019-06-02T00:04:58.980Z,933.16
2019-06-02T00:05:58.506Z,933.22
2019-06-02T00:06:58.505Z,933.24
2019-06-02T00:07:58.504Z,933.26
2019-06-02T00:08:58.493Z,933.30
2019-06-02T00:09:58.473Z,933.34
2019-06-02T00:10:58.830Z,933.32
2019-06-02T00:11:58.477Z,933.30
2019-06-02T00:12:58.435Z,933.33
2019-06-02T00:13:58.436Z,933.28
2019-06-02T00:14:58.445Z,933.31
2019-06-02T00:15:58.568Z,933.32
2019-06-02T00:16:58.401Z,933.27
2019-06-02T00:17:58.419Z,933.31
2019-06-02T00:18:58.714Z,933.24
2019-06-02T00:19:58.405Z,933.23
2019-06-02T00:20:58.370Z,933.23
2019-06-02T00:21:58.386Z,933.27
2019-06-02T00:22:58.371Z,933.30
2019-06-02T00:23:58.718Z,933.27
2019-06-02T00:24:58.360Z,933.24
2019-06-02T00:25:58.339Z,933.21
2019-06-02T00:26:58.333Z,933.20
2019-06-02T00:27:58.370Z,933.26
2019-06-02T00:28:58.363Z,933.24
2019-06-02T00:29:58.656Z,933.28
2019-06-02T00:30:58.273Z,933.25
2019-06-02T00:31:58.285Z,933.28
2019-06-02T00:32:58.284Z,933.24
2019-06-02T00:33:58.281Z,933.22
2019-06-02T00:34:58.276Z,933.24
2019-06-02T00:35:58.691Z,933.21
2019-06-02T00:36:58.247Z,933.26
2019-06-02T00:37:58.243Z,933.26
2019-06-02T00:38:58.226Z,933.31
2019-06-02T00:39:58.212Z,933.33
2019-06-02T00:40:58.218Z,933.35
2019-06-02T00:41:58.631Z,933.37
2019-06-02T00:42:58.193Z,933.37
2019-06-02T00:43:58.169Z,933.40
2019-06-02T00:44:58.185Z,933.41
2019-06-02T00:45:58.202Z,933.44
2019-06-02T00:46:58.200Z,933.44
2019-06-02T00:47:58.494Z,933.45
2019-06-02T00:48:58.154Z,933.45
2019-06-02T00:49:58.138Z,933.38
2019-06-02T00:50:58.115Z,933.35
2019-06-02T00:51:58.110Z,933.37
2019-06-02T00:52:58.089Z,933.39
2019-06-02T00:53:58.531Z,933.44
2019-06-02T00:54:58.095Z,933.48
2019-06-02T00:55:58.064Z,933.50
2019-06-02T00:56:58.057Z,933.52
2019-06-02T00:57:58.054Z,933.53
2019-06-02T00:58:58.057Z,933.55
2019-06-02T00:59:58.251Z,933.52
2019-06-02T01:00:58.154Z,933.57
2019-06-02T01:01:58.755Z,933.63
2019-06-02T01:02:58.045Z,933.64
2019-06-02T01:03:58.013Z,933.67
2019-06-02T01:04:57.999Z,933.69
2019-06-02T01:05:58.497Z,933.66
2019-06-02T01:06:57.954Z,933.65
2019-06-02T01:07:57.984Z,933.65
2019-06-02T01:08:57.948Z,933.64
2019-06-02T01:09:57.945Z,933.67
2019-06-02T01:10:57.938Z,933.64
2019-06-02T01:11:58.583Z,933.68
2019-06-02T01:12:57.929Z,933.64
2019-06-02T01:13:57.896Z,933.65
2019-06-02T01:15:08.721Z,933.69
2019-06-02T01:15:57.913Z,933.75
2019-06-02T01:16:57.903Z,933.79
2019-06-02T01:17:58.717Z,933.87
2019-06-02T01:18:57.877Z,933.84
2019-06-02T01:19:57.860Z,933.85
2019-06-02T01:20:57.849Z,933.80
2019-06-02T01:21:57.827Z,933.82
2019-06-02T01:22:57.835Z,933.80
2019-06-02T01:23:58.778Z,933.80
2019-06-02T01:24:57.854Z,933.80
2019-06-02T01:25:57.810Z,933.74
2019-06-02T01:26:57.822Z,933.75
2019-06-02T01:27:57.857Z,933.81
2019-06-02T01:28:57.781Z,933.75
2019-06-02T01:29:58.132Z,933.72
2019-06-02T01:30:57.796Z,933.69
2019-06-02T01:31:57.757Z,933.71
2019-06-02T01:32:57.728Z,933.75
2019-06-02T01:33:57.823Z,933.82
2019-06-02T01:34:58.503Z,933.84
2019-06-02T01:35:57.712Z,933.91
2019-06-02T01:36:57.716Z,933.98
2019-06-02T01:37:57.685Z,934.01
2019-06-02T01:38:57.730Z,934.01
2019-06-02T01:39:57.696Z,934.02
2019-06-02T01:40:58.119Z,934.02
2019-06-02T01:41:57.672Z,934.01
2019-06-02T01:42:57.673Z,933.98
2019-06-02T01:43:57.645Z,933.96
2019-06-02T01:44:57.635Z,933.95
2019-06-02T01:45:58.101Z,933.98
2019-06-02T01:46:57.639Z,933.90
2019-06-02T01:47:57.603Z,933.90
2019-06-02T01:48:57.601Z,933.88
2019-06-02T01:49:57.603Z,933.84
2019-06-02T01:50:58.083Z,933.81
2019-06-02T01:51:57.589Z,933.79
2019-06-02T01:52:57.556Z,933.73
2019-06-02T01:53:57.550Z,933.69
2019-06-02T01:54:57.532Z,933.67
2019-06-02T01:55:57.976Z,933.61
2019-06-02T01:56:57.497Z,933.54
2019-06-02T01:57:57.521Z,933.49
2019-06-02T01:58:57.508Z,933.44
2019-06-02T01:59:57.492Z,933.37
2019-06-02T02:00:57.843Z,933.33
2019-06-02T02:01:57.458Z,933.29
2019-06-02T02:02:57.469Z,933.30
2019-06-02T02:03:57.450Z,933.35
2019-06-02T02:04:57.453Z,933.40
2019-06-02T02:05:57.836Z,933.46
2019-06-02T02:06:57.420Z,933.48
2019-06-02T02:07:57.409Z,933.56
2019-06-02T02:08:57.397Z,933.55
2019-06-02T02:09:57.423Z,933.56
2019-06-02T02:10:57.885Z,933.53
2019-06-02T02:11:57.424Z,933.53
2019-06-02T02:12:57.366Z,933.49
2019-06-02T02:13:57.372Z,933.49
2019-06-02T02:14:57.343Z,933.53
2019-06-02T02:16:00.855Z,933.55
2019-06-02T02:16:57.636Z,933.53
2019-06-02T02:17:57.321Z,933.59
2019-06-02T02:18:57.319Z,933.59
2019-06-02T02:19:57.323Z,933.59
2019-06-02T02:20:57.293Z,933.65
2019-06-02T02:21:57.292Z,933.66
2019-06-02T02:22:57.721Z,933.67
2019-06-02T02:23:57.272Z,933.65
2019-06-02T02:24:57.264Z,933.65
2019-06-02T02:25:57.238Z,933.64
2019-06-02T02:26:57.281Z,933.69
2019-06-02T02:27:57.229Z,933.65
2019-06-02T02:28:57.575Z,933.70
2019-06-02T02:29:57.198Z,933.66
2019-06-02T02:30:57.200Z,933.70
2019-06-02T02:31:57.206Z,933.69
2019-06-02T02:32:57.178Z,933.68
2019-06-02T02:33:57.159Z,933.64
2019-06-02T02:34:57.455Z,933.59
2019-06-02T02:35:57.362Z,933.58
2019-06-02T02:36:57.143Z,933.53
2019-06-02T02:37:57.129Z,933.49
2019-06-02T02:38:57.178Z,933.40
2019-06-02T02:39:57.114Z,933.36
2019-06-02T02:40:57.573Z,933.33
2019-06-02T02:41:57.111Z,933.29
2019-06-02T02:42:57.086Z,933.28
2019-06-02T02:43:57.096Z,933.27
2019-06-02T02:44:57.058Z,933.26
2019-06-02T02:46:10.877Z,933.25
2019-06-02T02:46:57.562Z,933.26
2019-06-02T02:47:57.058Z,933.29
2019-06-02T02:48:57.023Z,933.29
2019-06-02T02:49:57.042Z,933.28
2019-06-02T02:50:57.027Z,933.25
2019-06-02T02:51:57.217Z,933.25
2019-06-02T02:52:57.387Z,933.25
2019-06-02T02:53:56.977Z,933.28
2019-06-02T02:54:56.989Z,933.28
2019-06-02T02:55:57.007Z,933.32
2019-06-02T02:56:56.970Z,933.29
2019-06-02T02:57:56.962Z,933.28
2019-06-02T02:58:57.392Z,933.26
2019-06-02T02:59:56.975Z,933.26
2019-06-02T03:00:56.902Z,933.22
2019-06-02T03:01:56.894Z,933.23
2019-06-02T03:02:56.891Z,933.21
2019-06-02T03:03:56.900Z,933.18
2019-06-02T03:04:57.227Z,933.15
2019-06-02T03:05:56.878Z,933.18
2019-06-02T03:06:56.854Z,933.19
2019-06-02T03:07:56.865Z,933.20
2019-06-02T03:08:56.834Z,933.17
2019-06-02T03:09:57.268Z,933.17
2019-06-02T03:10:56.817Z,933.15
2019-06-02T03:11:56.817Z,933.20
2019-06-02T03:12:56.794Z,933.21
2019-06-02T03:13:56.795Z,933.20
2019-06-02T03:14:57.245Z,933.23
2019-06-02T03:15:56.763Z,933.20
2019-06-02T03:16:56.773Z,933.18
2019-06-02T03:17:56.737Z,933.17
2019-06-02T03:18:56.751Z,933.17
2019-06-02T03:19:57.236Z,933.19
2019-06-02T03:20:56.737Z,933.17
2019-06-02T03:21:56.715Z,933.22
2019-06-02T03:22:56.710Z,933.22
2019-06-02T03:23:56.683Z,933.22
2019-06-02T03:24:57.103Z,933.16
2019-06-02T03:25:56.681Z,933.15
2019-06-02T03:26:56.665Z,933.16
2019-06-02T03:27:56.675Z,933.11
2019-06-02T03:28:56.660Z,933.08
2019-06-02T03:29:57.037Z,933.06
2019-06-02T03:30:59.467Z,933.02
2019-06-02T03:31:57.979Z,933.01
2019-06-02T03:33:01.660Z,932.98
2019-06-02T03:33:59.491Z,933.01
2019-06-02T03:34:58.642Z,932.98
2019-06-02T03:36:00.684Z,933.00
2019-06-02T03:36:56.562Z,933.01
2019-06-02T03:37:56.553Z,933.03
2019-06-02T03:38:56.571Z,933.03
2019-06-02T03:39:57.018Z,933.05
2019-06-02T03:40:56.545Z,933.03
2019-06-02T03:41:56.537Z,933.02
2019-06-02T03:42:56.526Z,932.98
2019-06-02T03:43:56.528Z,933.03
2019-06-02T03:44:56.959Z,933.04
2019-06-02T03:45:56.492Z,933.00
2019-06-02T03:47:07.042Z,933.01
2019-06-02T03:47:56.467Z,933.00
2019-06-02T03:48:56.453Z,933.03
2019-06-02T03:49:56.842Z,933.05
2019-06-02T03:50:56.442Z,933.03
2019-06-02T03:51:56.454Z,933.06
2019-06-02T03:52:56.454Z,933.06
2019-06-02T03:53:56.418Z,933.03
2019-06-02T03:54:56.399Z,933.05
2019-06-02T03:55:56.912Z,933.05
2019-06-02T03:56:56.388Z,933.03
2019-06-02T03:57:56.388Z,933.04
2019-06-02T03:58:56.374Z,933.06
2019-06-02T03:59:56.362Z,933.03
2019-06-02T04:00:56.362Z,933.05
2019-06-02T04:01:56.836Z,932.98
2019-06-02T04:02:56.338Z,933.02
2019-06-02T04:03:56.329Z,932.99
2019-06-02T04:04:56.306Z,933.00
2019-06-02T04:05:56.310Z,932.95
2019-06-02T04:06:56.298Z,932.97
2019-06-02T04:07:56.833Z,932.97
2019-06-02T04:08:56.276Z,932.97
2019-06-02T04:09:56.272Z,932.99
2019-06-02T04:10:56.263Z,932.97
2019-06-02T04:11:56.254Z,932.94
2019-06-02T04:12:56.234Z,932.97
2019-06-02T04:13:56.585Z,932.99
2019-06-02T04:14:56.217Z,933.05
2019-06-02T04:15:56.191Z,933.09
2019-06-02T04:17:12.102Z,933.14
2019-06-02T04:17:56.200Z,933.08
2019-06-02T04:18:56.194Z,933.11
2019-06-02T04:19:56.695Z,933.06
2019-06-02T04:20:56.175Z,933.06
2019-06-02T04:21:56.150Z,933.07
2019-06-02T04:22:56.141Z,933.07
2019-06-02T04:23:56.130Z,933.18
2019-06-02T04:24:56.116Z,933.17
2019-06-02T04:25:56.519Z,933.31
2019-06-02T04:26:56.106Z,933.34
2019-06-02T04:27:56.111Z,933.37
2019-06-02T04:28:56.084Z,933.36
2019-06-02T04:29:56.071Z,933.40
2019-06-02T04:30:56.075Z,933.45
2019-06-02T04:31:56.565Z,933.50
2019-06-02T04:32:56.045Z,933.51
2019-06-02T04:33:56.037Z,933.51
2019-06-02T04:34:56.064Z,933.48
2019-06-02T04:35:56.006Z,933.46
2019-06-02T04:36:56.011Z,933.51
2019-06-02T04:37:56.459Z,933.46
2019-06-02T04:38:56.015Z,933.48
2019-06-02T04:39:55.987Z,933.49
2019-06-02T04:40:56.011Z,933.51
2019-06-02T04:41:55.950Z,933.54
2019-06-02T04:42:55.943Z,933.57
2019-06-02T04:43:56.401Z,933.59
2019-06-02T04:44:55.946Z,933.58
2019-06-02T04:45:55.974Z,933.62
2019-06-02T04:46:55.925Z,933.66
2019-06-02T04:47:55.902Z,933.66
2019-06-02T04:48:56.417Z,933.62
2019-06-02T04:49:58.196Z,933.64
2019-06-02T04:50:55.874Z,933.60
2019-06-02T04:51:55.861Z,933.57
2019-06-02T04:52:55.875Z,933.65
2019-06-02T04:53:56.350Z,933.64
2019-06-02T04:54:55.839Z,933.67
2019-06-02T04:55:55.839Z,933.65
2019-06-02T04:56:55.862Z,933.61
2019-06-02T04:57:55.850Z,933.59
2019-06-02T04:58:56.234Z,933.54
2019-06-02T04:59:55.791Z,933.50
2019-06-02T05:00:55.773Z,933.51
2019-06-02T05:01:55.755Z,933.56
2019-06-02T05:02:55.760Z,933.60
2019-06-02T05:03:56.255Z,933.59
2019-06-02T05:04:55.739Z,933.52
2019-06-02T05:05:55.712Z,933.45
2019-06-02T05:06:55.718Z,933.37
2019-06-02T05:07:55.843Z,933.31
2019-06-02T05:08:56.570Z,933.31
2019-06-02T05:09:56.679Z,933.26
2019-06-02T05:10:56.729Z,933.20
2019-06-02T05:11:58.103Z,933.18
2019-06-02T05:12:56.750Z,933.16
2019-06-02T05:13:56.717Z,933.09
2019-06-02T05:14:56.723Z,933.05
2019-06-02T05:15:56.750Z,933.01
2019-06-02T05:16:56.867Z,932.99
2019-06-02T05:18:04.262Z,933.00
2019-06-02T05:18:58.100Z,932.99
2019-06-02T05:19:57.737Z,933.01
2019-06-02T05:20:57.093Z,932.98
2019-06-02T05:21:56.679Z,932.94
2019-06-02T05:22:56.905Z,932.94
2019-06-02T05:23:57.030Z,932.96
2019-06-02T05:24:56.670Z,932.91
2019-06-02T05:25:56.957Z,932.91
2019-06-02T05:26:55.525Z,932.86
2019-06-02T05:27:55.496Z,932.91
2019-06-02T05:28:56.269Z,932.90
2019-06-02T05:29:55.501Z,932.94
2019-06-02T05:30:56.424Z,932.95
2019-06-02T05:31:59.133Z,932.98
2019-06-02T05:32:56.521Z,932.95
2019-06-02T05:33:55.630Z,932.92
2019-06-02T05:34:55.460Z,932.92
2019-06-02T05:35:56.184Z,932.88
2019-06-02T05:36:55.410Z,932.85
2019-06-02T05:37:55.865Z,932.81
2019-06-02T05:38:55.441Z,932.77
2019-06-02T05:39:55.456Z,932.76
2019-06-02T05:40:55.453Z,932.77
2019-06-02T05:41:55.616Z,932.79
2019-06-02T05:42:55.680Z,932.80
2019-06-02T05:43:57.839Z,932.73
2019-06-02T05:44:55.758Z,932.73
2019-06-02T05:45:55.992Z,932.73
2019-06-02T05:46:56.364Z,932.75
2019-06-02T05:48:11.835Z,932.77
2019-06-02T05:48:56.312Z,932.77
2019-06-02T05:49:56.412Z,932.73
2019-06-02T05:50:56.417Z,932.72
2019-06-02T05:51:55.244Z,932.71
2019-06-02T05:52:55.268Z,932.67
2019-06-02T05:53:55.259Z,932.65
2019-06-02T05:54:55.255Z,932.66
2019-06-02T05:55:56.985Z,932.66
2019-06-02T05:56:55.227Z,932.68
2019-06-02T05:57:55.392Z,932.67
2019-06-02T05:58:55.838Z,932.67
2019-06-02T05:59:55.521Z,932.67
2019-06-02T06:00:56.240Z,932.66
2019-06-02T06:01:56.076Z,932.66
2019-06-02T06:02:59.419Z,932.70
2019-06-02T06:03:55.971Z,932.67
2019-06-02T06:04:56.013Z,932.68
2019-06-02T06:05:56.272Z,932.71
2019-06-02T06:06:56.391Z,932.71
2019-06-02T06:07:56.630Z,932.71
2019-06-02T06:08:55.097Z,932.73
2019-06-02T06:09:55.138Z,932.72
2019-06-02T06:10:55.081Z,932.75
2019-06-02T06:11:55.370Z,932.71
2019-06-02T06:12:55.165Z,932.73
2019-06-02T06:13:56.595Z,932.76
2019-06-02T06:14:55.379Z,932.81
2019-06-02T06:15:57.890Z,932.85
2019-06-02T06:16:55.566Z,932.81
2019-06-02T06:17:56.080Z,932.81
2019-06-02T06:18:55.757Z,932.81
2019-06-02T06:19:55.937Z,932.82
2019-06-02T06:20:56.117Z,932.84
2019-06-02T06:21:54.979Z,932.81
2019-06-02T06:22:56.195Z,932.86
2019-06-02T06:23:54.967Z,932.89
2019-06-02T06:24:54.952Z,932.92
2019-06-02T06:25:56.810Z,932.94
2019-06-02T06:26:54.935Z,932.97
2019-06-02T06:27:55.365Z,933.01
2019-06-02T06:28:55.332Z,933.06
2019-06-02T06:29:54.962Z,933.10
2019-06-02T06:30:55.320Z,933.12
2019-06-02T06:31:55.268Z,933.14
2019-06-02T06:32:55.258Z,933.12
2019-06-02T06:33:55.525Z,933.17
2019-06-02T06:34:55.590Z,933.17
2019-06-02T06:35:55.753Z,933.16
2019-06-02T06:36:55.793Z,933.18
2019-06-02T06:37:55.904Z,933.13
2019-06-02T06:39:06.504Z,933.12
2019-06-02T06:39:55.161Z,933.11
2019-06-02T06:40:56.491Z,933.09
2019-06-02T06:41:54.789Z,933.08
2019-06-02T06:42:54.783Z,933.13
2019-06-02T06:43:54.757Z,933.10
2019-06-02T06:44:54.745Z,933.09
2019-06-02T06:45:54.854Z,933.12
2019-06-02T06:46:55.860Z,933.08
2019-06-02T06:47:55.845Z,933.07
2019-06-02T06:48:55.788Z,933.03
2019-06-02T06:49:55.729Z,933.02
2019-06-02T06:50:55.955Z,933.02
2019-06-02T06:51:54.692Z,933.05
2019-06-02T06:52:56.233Z,933.09
2019-06-02T06:53:54.749Z,933.09
2019-06-02T06:54:54.775Z,933.17
2019-06-02T06:55:54.736Z,933.16
2019-06-02T06:56:54.725Z,933.20
2019-06-02T06:57:55.771Z,933.14
2019-06-02T06:58:55.283Z,933.14
2019-06-02T06:59:55.758Z,933.09
2019-06-02T07:00:55.598Z,933.15
2019-06-02T07:01:55.834Z,933.14
2019-06-02T07:02:55.261Z,933.18
2019-06-02T07:03:55.974Z,933.23
2019-06-02T07:04:55.238Z,933.26
2019-06-02T07:05:55.483Z,933.28
2019-06-02T07:06:55.201Z,933.32
2019-06-02T07:07:55.571Z,933.34
2019-06-02T07:08:55.363Z,933.36
2019-06-02T07:09:54.958Z,933.35
2019-06-02T07:10:54.932Z,933.34
2019-06-02T07:11:54.842Z,933.33
2019-06-02T07:12:55.219Z,933.30
2019-06-02T07:13:55.272Z,933.34
2019-06-02T07:14:55.402Z,933.29
2019-06-02T07:15:55.458Z,933.28
2019-06-02T07:16:55.567Z,933.27
2019-06-02T07:17:55.968Z,933.25
2019-06-02T07:19:09.064Z,933.18
2019-06-02T07:19:54.421Z,933.25
2019-06-02T07:20:54.396Z,933.24
2019-06-02T07:21:56.113Z,933.22
2019-06-02T07:22:54.381Z,933.25
2019-06-02T07:23:54.386Z,933.27
2019-06-02T07:24:54.382Z,933.28
2019-06-02T07:25:54.361Z,933.24
2019-06-02T07:26:54.343Z,933.29
2019-06-02T07:27:54.689Z,933.33
2019-06-02T07:28:54.342Z,933.33
2019-06-02T07:29:54.315Z,933.34
2019-06-02T07:30:54.317Z,933.33
2019-06-02T07:31:54.315Z,933.29
2019-06-02T07:32:54.296Z,933.27
2019-06-02T07:33:54.774Z,933.24
2019-06-02T07:34:54.283Z,933.24
2019-06-02T07:35:54.255Z,933.25
2019-06-02T07:36:54.237Z,933.26
2019-06-02T07:37:54.258Z,933.26
2019-06-02T07:38:54.228Z,933.26
2019-06-02T07:39:54.690Z,933.29
2019-06-02T07:40:54.202Z,933.24
2019-06-02T07:41:54.255Z,933.25
2019-06-02T07:42:54.196Z,933.25
2019-06-02T07:43:54.180Z,933.27
2019-06-02T07:44:54.201Z,933.19
2019-06-02T07:45:54.519Z,933.18
2019-06-02T07:46:54.151Z,933.20
2019-06-02T07:47:54.204Z,933.21
2019-06-02T07:48:54.156Z,933.22
2019-06-02T07:49:54.142Z,933.26
2019-06-02T07:50:54.158Z,933.24
2019-06-02T07:51:54.614Z,933.17
2019-06-02T07:52:54.085Z,933.17
2019-06-02T07:53:54.089Z,933.20
2019-06-02T07:54:54.066Z,933.18
2019-06-02T07:55:54.112Z,933.22
2019-06-02T07:56:54.045Z,933.27
2019-06-02T07:57:54.454Z,933.28
2019-06-02T07:58:54.111Z,933.33
2019-06-02T07:59:54.029Z,933.35
2019-06-02T08:00:54.048Z,933.34
2019-06-02T08:01:54.021Z,933.27
2019-06-02T08:02:54.460Z,933.25
2019-06-02T08:03:53.989Z,933.13
2019-06-02T08:04:53.979Z,933.10
2019-06-02T08:05:54.019Z,933.11
2019-06-02T08:06:54.010Z,933.14
2019-06-02T08:07:54.295Z,933.16
2019-06-02T08:08:53.942Z,933.18
2019-06-02T08:09:53.926Z,933.27
2019-06-02T08:10:53.924Z,933.33
2019-06-02T08:11:53.909Z,933.34
2019-06-02T08:12:53.918Z,933.35
2019-06-02T08:13:54.408Z,933.30
2019-06-02T08:14:53.894Z,933.23
2019-06-02T08:15:53.860Z,933.15
2019-06-02T08:16:53.857Z,933.13
2019-06-02T08:17:53.856Z,933.15
2019-06-02T08:18:54.199Z,933.15
2019-06-02T08:19:53.831Z,933.18
2019-06-02T08:20:53.823Z,933.15
2019-06-02T08:21:53.816Z,933.17
2019-06-02T08:22:53.859Z,933.18
2019-06-02T08:23:53.808Z,933.20
2019-06-02T08:24:54.195Z,933.19
2019-06-02T08:25:53.787Z,933.25
2019-06-02T08:26:53.777Z,933.32
2019-06-02T08:27:53.774Z,933.38
2019-06-02T08:28:53.735Z,933.42
2019-06-02T08:29:54.126Z,933.50
2019-06-02T08:30:53.728Z,933.51
2019-06-02T08:31:53.761Z,933.59
2019-06-02T08:32:53.697Z,933.66
2019-06-02T08:33:53.694Z,933.70
2019-06-02T08:34:53.708Z,933.76
2019-06-02T08:35:54.022Z,933.76
2019-06-02T08:36:53.666Z,933.80
2019-06-02T08:37:53.669Z,933.81
2019-06-02T08:38:53.635Z,933.94
2019-06-02T08:39:53.653Z,934.04
2019-06-02T08:40:54.125Z,934.11
2019-06-02T08:41:53.631Z,934.15
2019-06-02T08:42:53.623Z,934.16
2019-06-02T08:43:53.617Z,934.16
2019-06-02T08:44:53.603Z,934.09
2019-06-02T08:45:53.638Z,934.03
2019-06-02T08:46:54.059Z,933.98
2019-06-02T08:47:53.582Z,933.92
2019-06-02T08:48:53.539Z,933.97
2019-06-02T08:50:05.955Z,934.06
2019-06-02T08:50:53.533Z,934.14
2019-06-02T08:51:53.543Z,934.20
2019-06-02T08:52:53.918Z,934.26
2019-06-02T08:53:53.502Z,934.27
2019-06-02T08:54:53.494Z,934.28
2019-06-02T08:55:53.467Z,934.28
2019-06-02T08:56:53.463Z,934.32
2019-06-02T08:57:53.465Z,934.32
2019-06-02T08:58:53.842Z,934.26
2019-06-02T08:59:53.430Z,934.24
2019-06-02T09:00:53.433Z,934.23
2019-06-02T09:01:53.428Z,934.18
2019-06-02T09:02:53.421Z,934.18
2019-06-02T09:03:53.400Z,934.24
2019-06-02T09:04:56.182Z,934.31
2019-06-02T09:05:53.385Z,934.37
2019-06-02T09:06:53.369Z,934.45
2019-06-02T09:07:53.362Z,934.49
2019-06-02T09:08:53.352Z,934.53
2019-06-02T09:09:53.377Z,934.56
2019-06-02T09:10:53.794Z,934.48
2019-06-02T09:11:53.334Z,934.41
2019-06-02T09:12:53.350Z,934.39
2019-06-02T09:13:53.292Z,934.46
2019-06-02T09:14:53.329Z,934.42
2019-06-02T09:15:53.274Z,934.42
2019-06-02T09:16:53.970Z,934.43
2019-06-02T09:17:58.291Z,934.47
2019-06-02T09:18:53.226Z,934.51
2019-06-02T09:19:53.238Z,934.60
2019-06-02T09:20:53.232Z,934.64
2019-06-02T09:21:53.190Z,934.69
2019-06-02T09:22:53.637Z,934.76
2019-06-02T09:23:53.198Z,934.75
2019-06-02T09:24:53.187Z,934.80
2019-06-02T09:25:53.184Z,934.75
2019-06-02T09:26:53.171Z,934.73
2019-06-02T09:27:53.195Z,934.78
2019-06-02T09:28:53.636Z,934.86
2019-06-02T09:29:53.175Z,934.85
2019-06-02T09:30:53.110Z,934.86
2019-06-02T09:31:53.112Z,934.90
2019-06-02T09:32:53.093Z,934.91
2019-06-02T09:33:53.088Z,934.95
2019-06-02T09:34:53.548Z,934.94
2019-06-02T09:35:53.064Z,934.92
2019-06-02T09:36:53.094Z,934.92
2019-06-02T09:37:53.046Z,934.96
2019-06-02T09:38:53.074Z,934.95
2019-06-02T09:39:53.022Z,935.05
2019-06-02T09:40:53.522Z,935.06
2019-06-02T09:41:52.984Z,935.05
2019-06-02T09:42:53.002Z,935.08
2019-06-02T09:43:52.996Z,935.08
2019-06-02T09:44:52.959Z,935.05
2019-06-02T09:45:52.976Z,935.07
2019-06-02T09:46:53.346Z,935.08
2019-06-02T09:47:52.939Z,935.11
2019-06-02T09:48:52.935Z,935.13
2019-06-02T09:49:52.919Z,935.14
2019-06-02T09:50:52.930Z,935.11
2019-06-02T09:51:52.921Z,935.12
2019-06-02T09:52:56.137Z,935.06
2019-06-02T09:53:52.899Z,934.99
2019-06-02T09:54:55.101Z,934.92
2019-06-02T09:55:52.860Z,934.87
2019-06-02T09:56:52.897Z,934.71
2019-06-02T09:57:52.837Z,934.63
2019-06-02T09:58:53.296Z,934.61
2019-06-02T09:59:52.818Z,934.63
2019-06-02T10:00:52.811Z,934.58
2019-06-02T10:01:52.788Z,934.62
2019-06-02T10:02:52.773Z,934.67
2019-06-02T10:03:52.781Z,934.71
2019-06-02T10:04:53.272Z,934.71
2019-06-02T10:05:52.763Z,934.71
2019-06-02T10:06:52.738Z,934.68
2019-06-02T10:07:52.742Z,934.67
2019-06-02T10:08:52.725Z,934.59
2019-06-02T10:09:52.699Z,934.60
2019-06-02T10:10:53.118Z,934.60
2019-06-02T10:11:52.703Z,934.61
2019-06-02T10:12:52.764Z,934.57
2019-06-02T10:13:52.668Z,934.59
2019-06-02T10:14:52.679Z,934.64
2019-06-02T10:15:53.190Z,934.59
2019-06-02T10:16:52.633Z,934.59
2019-06-02T10:17:52.624Z,934.57
2019-06-02T10:18:52.626Z,934.56
2019-06-02T10:19:52.632Z,934.59
2019-06-02T10:21:03.920Z,934.62
2019-06-02T10:21:53.178Z,934.68
2019-06-02T10:22:52.612Z,934.73
2019-06-02T10:23:52.557Z,934.73
2019-06-02T10:24:52.568Z,934.77
2019-06-02T10:25:52.557Z,934.78
2019-06-02T10:26:52.550Z,934.78
2019-06-02T10:27:52.945Z,934.76
2019-06-02T10:28:52.526Z,934.75
2019-06-02T10:29:52.518Z,934.73
2019-06-02T10:30:52.512Z,934.74
2019-06-02T10:31:55.065Z,934.73
2019-06-02T10:32:52.480Z,934.78
2019-06-02T10:33:53.028Z,934.79
2019-06-02T10:34:52.468Z,934.82
2019-06-02T10:35:52.451Z,934.86
2019-06-02T10:36:52.453Z,934.88
2019-06-02T10:37:52.476Z,934.95
2019-06-02T10:38:52.430Z,935.02
2019-06-02T10:39:52.745Z,935.13
2019-06-02T10:40:52.392Z,935.25
2019-06-02T10:41:52.410Z,935.26
2019-06-02T10:42:52.384Z,935.21
2019-06-02T10:43:52.361Z,935.14
2019-06-02T10:44:52.364Z,935.16
2019-06-02T10:45:52.764Z,935.24
2019-06-02T10:46:52.323Z,935.21
2019-06-02T10:47:52.335Z,935.21
2019-06-02T10:48:52.333Z,935.27
2019-06-02T10:49:52.326Z,935.36
2019-06-02T10:50:52.317Z,935.44
2019-06-02T10:51:52.801Z,935.47
2019-06-02T10:52:52.290Z,935.46
2019-06-02T10:53:52.252Z,935.41
2019-06-02T10:54:52.243Z,935.48
2019-06-02T10:55:52.234Z,935.53
2019-06-02T10:56:52.249Z,935.53
2019-06-02T10:57:54.320Z,935.58
2019-06-02T10:58:52.223Z,935.63
2019-06-02T10:59:52.215Z,935.67
2019-06-02T11:00:52.204Z,935.67
2019-06-02T11:01:52.178Z,935.71
2019-06-02T11:02:52.193Z,935.70
2019-06-02T11:03:52.598Z,935.70
2019-06-02T11:04:52.136Z,935.70
2019-06-02T11:05:52.181Z,935.68
2019-06-02T11:06:52.144Z,935.63
2019-06-02T11:07:52.127Z,935.60
2019-06-02T11:08:52.121Z,935.60
2019-06-02T11:09:52.462Z,935.61
2019-06-02T11:10:52.102Z,935.62
2019-06-02T11:11:52.090Z,935.58
2019-06-02T11:12:52.081Z,935.56
2019-06-02T11:13:52.067Z,935.53
2019-06-02T11:14:52.068Z,935.45
2019-06-02T11:15:52.510Z,935.40
2019-06-02T11:16:52.014Z,935.26
2019-06-02T11:17:52.027Z,935.22
2019-06-02T11:18:52.028Z,935.24
2019-06-02T11:19:52.014Z,935.22
2019-06-02T11:20:51.987Z,935.19
2019-06-02T11:21:52.582Z,935.23
2019-06-02T11:22:51.974Z,935.25
2019-06-02T11:23:51.952Z,935.29
2019-06-02T11:24:51.964Z,935.23
2019-06-02T11:25:51.961Z,935.24
2019-06-02T11:26:51.934Z,935.21
2019-06-02T11:27:52.332Z,935.21
2019-06-02T11:28:51.918Z,935.17
2019-06-02T11:29:51.907Z,935.20
2019-06-02T11:30:51.897Z,935.23
2019-06-02T11:31:51.921Z,935.30
2019-06-02T11:32:51.914Z,935.33
2019-06-02T11:33:52.397Z,935.32
2019-06-02T11:34:51.862Z,935.34
2019-06-02T11:35:51.848Z,935.34
2019-06-02T11:36:51.827Z,935.34
2019-06-02T11:37:51.898Z,935.33
2019-06-02T11:38:51.823Z,935.30
2019-06-02T11:39:52.347Z,935.30
2019-06-02T11:40:51.798Z,935.31
2019-06-02T11:41:51.754Z,935.34
2019-06-02T11:42:51.749Z,935.36
2019-06-02T11:43:51.752Z,935.39
2019-06-02T11:44:52.098Z,935.41
2019-06-02T11:45:51.732Z,935.43
2019-06-02T11:46:51.719Z,935.49
2019-06-02T11:47:51.729Z,935.41
2019-06-02T11:48:51.685Z,935.44
2019-06-02T11:49:51.689Z,935.47
2019-06-02T11:50:51.695Z,935.48
2019-06-02T11:51:56.224Z,935.44
2019-06-02T11:52:51.651Z,935.45
2019-06-02T11:53:51.642Z,935.42
2019-06-02T11:54:51.678Z,935.45
2019-06-02T11:55:51.669Z,935.44
2019-06-02T11:56:51.610Z,935.45
2019-06-02T11:57:51.622Z,935.46
2019-06-02T11:58:51.602Z,935.43
2019-06-02T11:59:51.572Z,935.37
2019-06-02T12:00:51.589Z,935.42
2019-06-02T12:01:51.581Z,935.38
2019-06-02T12:02:51.613Z,935.36
2019-06-02T12:03:51.537Z,935.36
2019-06-02T12:04:51.550Z,935.31
2019-06-02T12:05:51.531Z,935.25
2019-06-02T12:06:51.524Z,935.24
2019-06-02T12:07:51.516Z,935.24
2019-06-02T12:08:51.498Z,935.28
2019-06-02T12:09:51.493Z,935.28
2019-06-02T12:10:51.512Z,935.33
2019-06-02T12:11:51.465Z,935.32
2019-06-02T12:12:51.451Z,935.33
2019-06-02T12:13:51.423Z,935.34
2019-06-02T12:14:51.419Z,935.38
2019-06-02T12:15:51.428Z,935.37
2019-06-02T12:16:51.414Z,935.42
2019-06-02T12:17:51.452Z,935.48
2019-06-02T12:18:51.370Z,935.60
2019-06-02T12:19:51.387Z,935.60
2019-06-02T12:20:51.371Z,935.58
2019-06-02T12:21:51.370Z,935.58
2019-06-02T12:22:51.345Z,935.57
2019-06-02T12:23:51.338Z,935.60
2019-06-02T12:24:51.323Z,935.60
2019-06-02T12:25:51.348Z,935.59
2019-06-02T12:26:54.306Z,935.52
2019-06-02T12:27:51.301Z,935.53
2019-06-02T12:28:51.266Z,935.57